Time;durP1;ratioP1;P1;durP2;ratioP2;P2;SDS_P1;SDS_P2;PMS_P1;PMS_P2;Temp;Humidity;BMP_temperature;BMP_pressure;BME280_temperature;BME280_humidity;BME280_pressure;Samples;Min_cycle;Max_cycle;Signal;HPM_P1;HPM_P2
2023/06/11 00:01:23;;;;;;;4.65;4.35;;;;;;;19.32;84.77;96276.78;4957946;28;20206;-62
2023/06/11 00:03:52;;;;;;;5.10;4.60;;;;;;;19.31;84.99;96268.94;4977631;28;20288;-62
2023/06/11 00:06:20;;;;;;;5.32;4.93;;;;;;;19.23;85.75;96271.84;4977384;28;20248;-62
2023/06/11 00:08:47;;;;;;;5.30;5.00;;;;;;;19.23;84.88;96267.31;4958040;28;20211;-62
2023/06/11 00:11:13;;;;;;;4.60;4.30;;;;;;;19.25;85.14;96275.13;4971138;28;20690;-63
2023/06/11 00:13:40;;;;;;;5.22;4.80;;;;;;;19.17;86.56;96267.28;4965158;28;20210;-63
2023/06/11 00:16:06;;;;;;;5.35;5.05;;;;;;;19.19;86.16;96274.09;4976703;28;20224;-62
2023/06/11 00:18:33;;;;;;;5.70;4.75;;;;;;;19.18;86.08;96269.78;4977214;28;20230;-64
2023/06/11 00:21:02;;;;;;;5.18;4.78;;;;;;;19.12;86.95;96272.44;4976885;28;20591;-63
2023/06/11 00:23:29;;;;;;;5.07;4.78;;;;;;;19.06;86.97;96274.06;4974880;28;20272;-62
2023/06/11 00:25:57;;;;;;;5.20;4.90;;;;;;;19.13;86.41;96282.16;4971502;28;20284;-63
2023/06/11 00:28:23;;;;;;;5.53;5.03;;;;;;;19.05;86.96;96282.34;4977173;28;20210;-64
2023/06/11 00:30:49;;;;;;;5.38;4.85;;;;;;;19.01;87.13;96281.91;4976455;28;20206;-63
2023/06/11 00:33:16;;;;;;;5.20;4.90;;;;;;;18.98;88.08;96273.47;4969678;28;20655;-63
2023/06/11 00:35:42;;;;;;;5.25;4.80;;;;;;;18.98;87.65;96273.47;4971881;28;20213;-62
2023/06/11 00:38:10;;;;;;;5.00;4.70;;;;;;;18.99;88.20;96281.28;4976862;28;20249;-63
2023/06/11 00:40:36;;;;;;;5.47;5.00;;;;;;;18.92;87.75;96280.44;4976533;28;20213;-62
2023/06/11 00:43:04;;;;;;;5.03;4.63;;;;;;;18.94;87.53;96283.78;4976414;28;20210;-63
2023/06/11 00:45:35;;;;;;;5.68;5.20;;;;;;;18.95;87.23;96290.78;4963545;28;20214;-63
2023/06/11 00:48:01;;;;;;;5.22;4.82;;;;;;;18.95;87.63;96281.91;4976781;28;20201;-62
2023/06/11 00:50:28;;;;;;;5.32;4.93;;;;;;;18.87;90.23;96285.63;4976161;28;20642;-63
2023/06/11 00:52:55;;;;;;;5.65;5.15;;;;;;;18.88;89.35;96289.94;4976336;28;20232;-62
2023/06/11 00:55:25;;;;;;;4.90;4.60;;;;;;;18.88;88.84;96289.94;4966235;28;20217;-63
2023/06/11 00:57:53;;;;;;;4.88;4.57;;;;;;;18.85;89.71;96284.97;4957232;28;20221;-63
2023/06/11 01:00:20;;;;;;;5.32;5.00;;;;;;;18.85;90.76;96290.31;4956744;28;20242;-63
2023/06/11 01:02:51;;;;;;;5.25;4.78;;;;;;;18.82;90.97;96283.53;4956912;28;20224;-62
2023/06/11 01:05:18;;;;;;;5.50;5.10;;;;;;;18.78;91.51;96284.97;4961616;28;20344;-64
2023/06/11 01:07:50;;;;;;;5.22;4.82;;;;;;;18.81;90.30;96289.91;4965429;28;20206;-62
2023/06/11 01:10:17;;;;;;;5.90;5.50;;;;;;;18.73;89.92;96282.09;4955876;28;20694;-64
2023/06/11 01:12:45;;;;;;;5.10;4.70;;;;;;;18.75;90.12;96289.91;4945030;29;20290;-62
2023/06/11 01:15:13;;;;;;;5.65;5.10;;;;;;;18.66;91.50;96291.13;4937431;29;20657;-64
2023/06/11 01:17:42;;;;;;;5.20;4.80;;;;;;;18.60;92.72;96287.38;4937887;29;20242;-63
2023/06/11 01:20:13;;;;;;;5.60;5.20;;;;;;;18.61;92.63;96288.22;4937741;29;20207;-63
2023/06/11 01:23:06;;;;;;;5.72;5.32;;;;;;;18.60;92.62;96290.06;4937780;29;20659;-63
2023/06/11 01:25:39;;;;;;;5.38;5.07;;;;;;;18.59;92.76;96283.06;4945497;29;20218;-63
2023/06/11 01:28:10;;;;;;;6.20;5.40;;;;;;;18.54;92.78;96282.84;4941548;29;20217;-64
2023/06/11 01:30:38;;;;;;;5.35;5.03;;;;;;;18.57;92.69;96282.44;4944563;29;20641;-62
2023/06/11 01:33:05;;;;;;;5.35;4.97;;;;;;;18.57;93.15;96285.09;4937418;29;20207;-62
2023/06/11 01:35:33;;;;;;;5.30;5.00;;;;;;;18.58;93.63;96292.13;4937531;29;20215;-63
2023/06/11 01:38:00;;;;;;;5.50;5.20;;;;;;;18.56;93.22;96291.50;4937175;29;20687;-61
2023/06/11 01:40:27;;;;;;;5.45;5.05;;;;;;;18.62;91.60;96293.38;4942156;29;20238;-63
2023/06/11 01:42:54;;;;;;;5.50;5.10;;;;;;;18.60;92.84;96297.28;4937407;29;20206;-62
2023/06/11 01:45:23;;;;;;;5.93;5.50;;;;;;;18.60;92.06;96298.09;4936890;29;20230;-64
2023/06/11 01:47:49;;;;;;;5.47;4.97;;;;;;;18.59;91.11;96292.94;4936941;29;20294;-63
2023/06/11 01:50:17;;;;;;;5.45;5.05;;;;;;;18.65;91.29;96295.66;4943074;29;20207;-62
2023/06/11 01:52:43;;;;;;;5.53;5.13;;;;;;;18.61;92.06;96293.56;4937190;29;20211;-61
2023/06/11 01:55:11;;;;;;;5.65;5.10;;;;;;;18.56;93.00;96294.19;4946960;29;20221;-63
2023/06/11 01:57:40;;;;;;;5.05;4.65;;;;;;;18.61;92.05;96293.56;4937198;29;20231;-62
2023/06/11 02:00:09;;;;;;;5.47;4.95;;;;;;;18.65;91.33;96295.66;4936428;29;20648;-62
2023/06/11 02:02:38;;;;;;;5.22;4.93;;;;;;;18.71;91.40;96296.69;4944209;29;20207;-64
2023/06/11 02:05:05;;;;;;;5.40;5.00;;;;;;;18.71;91.55;96300.19;4936962;29;20215;-62
2023/06/11 02:07:31;;;;;;;5.20;4.90;;;;;;;18.71;91.68;96291.31;4936964;29;20650;-63
2023/06/11 02:09:58;;;;;;;5.43;5.00;;;;;;;18.65;92.38;96295.66;4936983;29;20226;-62
2023/06/11 02:12:24;;;;;;;5.60;5.20;;;;;;;18.42;91.10;96293.25;4952755;29;20250;-62
2023/06/11 02:14:51;;;;;;;5.57;5.18;;;;;;;18.39;92.27;96296.34;4939610;28;20238;-61
2023/06/11 02:17:17;;;;;;;5.50;5.10;;;;;;;18.28;95.13;96304.13;4946894;29;20245;-63
2023/06/11 02:19:45;;;;;;;5.43;5.13;;;;;;;18.22;96.29;96302.22;4953027;29;20570;-63
2023/06/11 02:22:12;;;;;;;5.03;4.72;;;;;;;18.15;95.77;96298.69;4940029;29;20207;-62
2023/06/11 02:24:40;;;;;;;5.30;4.90;;;;;;;18.14;96.51;96302.41;4940789;29;20635;-62
2023/06/11 02:27:07;;;;;;;5.63;5.13;;;;;;;18.14;96.53;96299.75;4940946;29;20237;-63
2023/06/11 02:29:34;;;;;;;5.60;5.20;;;;;;;18.09;96.73;96310.19;4940956;29;20225;-63
2023/06/11 02:32:00;;;;;;;5.55;5.18;;;;;;;18.10;96.75;96306.50;4959331;29;20295;-64
2023/06/11 02:34:26;;;;;;;5.30;4.88;;;;;;;18.04;97.81;96301.94;4942457;29;20237;-62
2023/06/11 02:36:54;;;;;;;6.05;5.57;;;;;;;18.00;97.80;96300.66;4940562;29;20703;-62
2023/06/11 02:39:21;;;;;;;5.32;4.93;;;;;;;17.95;98.03;96303.13;4947047;29;20230;-63
2023/06/11 02:41:47;;;;;;;5.45;4.97;;;;;;;17.94;97.97;96301.47;4940709;29;20215;-62
2023/06/11 02:44:13;;;;;;;5.88;5.43;;;;;;;17.94;96.40;96306.81;4940660;29;20229;-63
2023/06/11 02:46:40;;;;;;;5.35;5.00;;;;;;;17.92;95.78;96308.88;4940244;29;20211;-64
2023/06/11 02:49:07;;;;;;;6.63;5.18;;;;;;;17.83;98.34;96306.34;4944085;29;20656;-62
2023/06/11 02:51:33;;;;;;;5.47;5.03;;;;;;;17.76;99.21;96318.03;4957349;29;20230;-62
2023/06/11 02:54:02;;;;;;;5.30;4.90;;;;;;;17.74;99.19;96312.88;4944781;29;20240;-62
2023/06/11 02:56:29;;;;;;;5.20;4.90;;;;;;;17.67;100.00;96317.34;4957025;29;20301;-62
2023/06/11 02:58:55;;;;;;;5.57;5.18;;;;;;;17.75;99.56;96322.53;4940779;29;20227;-63
2023/06/11 03:01:21;;;;;;;5.30;4.90;;;;;;;17.68;100.00;96321.66;4954024;29;20215;-63
2023/06/11 03:03:48;;;;;;;5.57;5.18;;;;;;;17.72;99.88;96319.44;4975746;29;20210;-64
2023/06/11 03:06:14;;;;;;;5.97;5.47;;;;;;;17.66;99.50;96310.34;4956398;29;20212;-63
2023/06/11 03:08:41;;;;;;;5.85;5.45;;;;;;;17.57;99.19;96316.84;4940209;29;20215;-62
2023/06/11 03:11:08;;;;;;;6.40;5.90;;;;;;;17.55;100.00;96324.22;4939949;29;20250;-62
2023/06/11 03:13:35;;;;;;;5.47;5.07;;;;;;;17.52;100.00;96327.28;4952465;29;20214;-62
2023/06/11 03:16:01;;;;;;;5.82;5.43;;;;;;;17.58;100.00;96323.03;4939478;29;20574;-62
2023/06/11 03:18:28;;;;;;;5.50;5.00;;;;;;;17.52;100.00;96321.09;4940389;29;20337;-63
2023/06/11 03:20:54;;;;;;;6.32;5.75;;;;;;;17.56;100.00;96320.56;4954255;29;20224;-62
2023/06/11 03:23:21;;;;;;;5.43;5.03;;;;;;;17.54;100.00;96325.22;4944265;29;20215;-62
2023/06/11 03:25:47;;;;;;;5.50;5.10;;;;;;;17.49;100.00;96325.00;4953447;29;20222;-64
2023/06/11 03:28:15;;;;;;;5.95;5.55;;;;;;;17.46;100.00;96322.72;4947436;29;20207;-62
2023/06/11 03:30:41;;;;;;;5.93;5.47;;;;;;;17.51;100.00;96320.28;4941260;29;20215;-63
2023/06/11 03:33:07;;;;;;;5.95;5.50;;;;;;;17.49;100.00;96322.31;4940632;29;20274;-62
2023/06/11 03:35:34;;;;;;;6.47;5.88;;;;;;;17.46;100.00;96329.91;4941125;29;20219;-62
2023/06/11 03:38:00;;;;;;;6.13;5.72;;;;;;;17.47;100.00;96323.50;4949531;29;20567;-63
2023/06/11 03:40:27;;;;;;;5.88;5.47;;;;;;;17.37;100.00;96326.53;4953173;29;20545;-62
2023/06/11 03:42:53;;;;;;;6.40;5.90;;;;;;;17.38;100.00;96318.34;4940533;29;20211;-63
2023/06/11 03:45:21;;;;;;;6.55;5.95;;;;;;;17.38;100.00;96317.50;4951125;29;20266;-62
2023/06/11 03:47:51;;;;;;;6.03;5.53;;;;;;;17.33;100.00;96319.91;4945671;29;20210;-63
2023/06/11 03:50:18;;;;;;;6.18;5.78;;;;;;;17.32;100.00;96323.63;4952027;29;20207;-62
2023/06/11 03:52:44;;;;;;;5.65;5.25;;;;;;;17.35;100.00;96323.25;4951144;29;20214;-60
2023/06/11 03:55:11;;;;;;;6.05;5.53;;;;;;;17.33;100.00;96319.91;4943418;29;20199;-63
2023/06/11 03:57:38;;;;;;;5.88;5.38;;;;;;;17.32;100.00;96324.44;4939389;29;20215;-61
2023/06/11 04:00:06;;;;;;;5.95;5.53;;;;;;;17.33;100.00;96330.59;4940524;29;20211;-61
2023/06/11 04:02:33;;;;;;;6.18;5.78;;;;;;;17.35;100.00;96329.41;4958339;29;20640;-61
2023/06/11 04:05:00;;;;;;;6.05;5.65;;;;;;;17.35;100.00;96333.94;4957748;29;20653;-62
2023/06/11 04:07:29;;;;;;;6.32;5.93;;;;;;;17.35;100.00;96328.59;4958456;29;20242;-62
2023/06/11 04:09:55;;;;;;;6.32;5.70;;;;;;;17.35;100.00;96331.25;4955425;29;20660;-61
2023/06/11 04:12:21;;;;;;;6.13;5.68;;;;;;;17.38;100.00;96333.53;4957697;29;20242;-63
2023/06/11 04:14:48;;;;;;;6.20;5.80;;;;;;;17.46;100.00;96330.75;4958000;29;20214;-62
2023/06/11 04:17:14;;;;;;;6.50;5.90;;;;;;;17.43;100.00;96336.44;4957643;29;20269;-62
2023/06/11 04:19:42;;;;;;;6.40;5.90;;;;;;;17.52;100.00;96334.47;4956369;29;20593;-62
2023/06/11 04:22:08;;;;;;;6.57;6.07;;;;;;;17.52;100.00;96337.16;4958389;28;20281;-63
2023/06/11 04:24:35;;;;;;;6.65;6.15;;;;;;;17.55;100.00;96334.91;4958483;29;20214;-62
2023/06/11 04:27:01;;;;;;;6.35;5.93;;;;;;;17.63;100.00;96337.47;4959144;29;20273;-62
2023/06/11 04:29:29;;;;;;;6.85;6.10;;;;;;;17.66;100.00;96346.97;4957472;29;20202;-63
2023/06/11 04:31:56;;;;;;;6.38;5.97;;;;;;;17.72;100.00;96347.00;4955562;29;20230;-63
2023/06/11 04:34:29;;;;;;;6.63;6.13;;;;;;;17.77;100.00;96343.75;4959740;29;20261;-64
2023/06/11 04:36:56;;;;;;;6.65;6.15;;;;;;;17.83;100.00;96346.47;4959807;28;20682;-63
2023/06/11 04:39:23;;;;;;;6.40;5.95;;;;;;;17.97;100.00;96333.16;4951168;29;20244;-62
2023/06/11 04:41:51;;;;;;;7.05;6.55;;;;;;;18.22;100.00;96347.72;4959994;29;20582;-63
2023/06/11 04:44:18;;;;;;;7.20;6.70;;;;;;;18.27;100.00;96345.31;4958149;28;20262;-63
2023/06/11 04:46:46;;;;;;;6.47;6.07;;;;;;;18.44;100.00;96349.31;4957202;29;20663;-63
2023/06/11 04:49:15;;;;;;;6.97;6.47;;;;;;;18.51;100.00;96349.34;4958043;29;20221;-63
2023/06/11 04:51:42;;;;;;;6.65;6.25;;;;;;;18.67;100.00;96349.84;4958305;28;20234;-63
2023/06/11 04:54:10;;;;;;;7.05;6.45;;;;;;;18.77;100.00;96346.78;4958098;29;20649;-62
2023/06/11 04:56:36;;;;;;;6.45;6.05;;;;;;;18.84;100.00;96351.16;4946763;29;20239;-63
2023/06/11 04:59:03;;;;;;;7.30;6.70;;;;;;;18.89;99.08;96354.03;4938797;29;20246;-64
2023/06/11 05:01:30;;;;;;;6.97;6.47;;;;;;;18.93;98.19;96353.63;4948953;29;20210;-64
2023/06/11 05:03:56;;;;;;;7.28;6.57;;;;;;;19.01;98.25;96353.44;4938572;29;20533;-62
2023/06/11 05:06:23;;;;;;;7.00;6.40;;;;;;;19.11;96.58;96359.25;4939084;29;20637;-63
2023/06/11 05:08:52;;;;;;;7.03;6.53;;;;;;;19.17;95.26;96363.78;4938237;29;20207;-62
2023/06/11 05:11:19;;;;;;;7.95;7.35;;;;;;;19.25;94.73;96355.56;4938054;29;20596;-62
2023/06/11 05:13:47;;;;;;;7.07;6.57;;;;;;;19.42;94.09;96356.84;4949093;29;20617;-62
2023/06/11 05:16:14;;;;;;;7.35;6.72;;;;;;;19.52;92.20;96357.25;4937388;29;20278;-62
2023/06/11 05:18:40;;;;;;;6.35;5.95;;;;;;;19.66;92.21;96358.91;4951607;29;20289;-62
2023/06/11 05:21:09;;;;;;;7.10;6.50;;;;;;;19.75;90.86;96357.69;4944651;29;20656;-61
2023/06/11 05:23:35;;;;;;;7.63;6.93;;;;;;;19.78;90.11;96357.28;4948825;29;20888;-62
2023/06/11 05:26:08;;;;;;;6.93;6.45;;;;;;;19.94;89.65;96349.84;4939729;29;20290;-64
2023/06/11 05:28:36;;;;;;;6.90;6.40;;;;;;;20.11;88.31;96356.41;4937770;29;20528;-61
2023/06/11 05:31:03;;;;;;;6.68;6.18;;;;;;;20.21;87.74;96351.44;4937033;29;20211;-62
2023/06/11 05:33:30;;;;;;;7.63;7.10;;;;;;;20.27;87.70;96361.34;4937697;29;20254;-62
2023/06/11 05:35:56;;;;;;;6.70;6.30;;;;;;;20.46;87.56;96357.81;4938956;29;20230;-62
2023/06/11 05:38:23;;;;;;;6.32;5.90;;;;;;;20.61;87.41;96360.25;4937514;29;20239;-63
2023/06/11 05:40:50;;;;;;;8.02;7.43;;;;;;;20.60;85.79;96367.47;4937578;29;20211;-62
2023/06/11 05:43:16;;;;;;;7.57;6.97;;;;;;;20.72;85.66;96365.78;4937457;29;20218;-63
2023/06/11 05:45:48;;;;;;;7.63;7.03;;;;;;;20.80;84.55;96370.06;4936732;29;20214;-63
2023/06/11 05:48:15;;;;;;;7.10;6.60;;;;;;;20.93;83.51;96371.91;4939112;29;20215;-61
2023/06/11 05:50:41;;;;;;;7.90;7.30;;;;;;;20.96;82.23;96371.47;4939588;29;20218;-62
2023/06/11 05:53:09;;;;;;;7.80;7.22;;;;;;;21.00;83.09;96370.00;4940855;29;20211;-63
2023/06/11 05:55:35;;;;;;;7.70;7.10;;;;;;;21.11;82.61;96374.75;4954294;29;20221;-62
2023/06/11 05:58:02;;;;;;;7.38;6.88;;;;;;;21.25;81.70;96382.53;4945551;28;20207;-63
2023/06/11 06:00:28;;;;;;;7.97;7.38;;;;;;;21.15;80.96;96381.34;4942580;29;20214;-62
2023/06/11 06:02:56;;;;;;;6.72;6.25;;;;;;;21.31;80.76;96391.56;4956619;29;20217;-61
2023/06/11 06:05:23;;;;;;;7.18;6.57;;;;;;;21.60;80.95;96387.47;4938461;29;20222;-63
2023/06/11 06:07:49;;;;;;;7.30;6.80;;;;;;;21.74;80.27;96391.69;4938016;29;20211;-63
2023/06/11 06:10:16;;;;;;;7.30;6.70;;;;;;;21.99;79.37;96389.03;4937626;29;20218;-61
2023/06/11 06:12:42;;;;;;;7.53;6.93;;;;;;;22.24;78.60;96397.94;4948832;29;20256;-62
2023/06/11 06:15:10;;;;;;;7.40;6.90;;;;;;;22.31;76.63;96388.75;4941196;29;20646;-63
2023/06/11 06:17:36;;;;;;;7.40;6.90;;;;;;;;;;4944389;29;20648;-62
2023/06/11 06:20:06;;;;;;;7.63;7.13;;;;;;;22.61;75.28;96394.22;4940064;29;20277;-62
2023/06/11 06:22:32;;;;;;;8.13;7.53;;;;;;;22.74;74.48;96383.31;4944234;28;20292;-63
2023/06/11 06:24:58;;;;;;;7.38;6.85;;;;;;;23.00;74.57;96389.44;4936822;29;20540;-62
2023/06/11 06:27:25;;;;;;;7.80;7.20;;;;;;;23.10;73.18;96393.25;4937330;29;20226;-62
2023/06/11 06:29:51;;;;;;;7.60;7.10;;;;;;;23.14;71.49;96401.72;4948472;29;20210;-61
2023/06/11 06:32:18;;;;;;;7.55;6.93;;;;;;;23.53;71.61;96392.28;4937282;29;20215;-64
2023/06/11 06:34:44;;;;;;;8.07;7.47;;;;;;;23.55;69.16;96401.81;4937415;29;20219;-63
2023/06/11 06:37:12;;;;;;;7.40;6.90;;;;;;;23.78;69.82;96396.47;4937899;29;20641;-63
2023/06/11 06:39:38;;;;;;;7.70;7.05;;;;;;;23.91;69.70;96400.00;4947764;29;20326;-64
2023/06/11 06:42:06;;;;;;;7.60;7.00;;;;;;;24.10;68.92;96399.69;4936912;29;20211;-63
2023/06/11 06:44:32;;;;;;;7.28;6.65;;;;;;;24.15;67.71;96390.91;4936904;29;20211;-63
2023/06/11 06:46:59;;;;;;;8.10;7.50;;;;;;;23.97;67.67;96396.38;4936385;29;20307;-63
2023/06/11 06:49:25;;;;;;;7.10;6.50;;;;;;;24.33;67.75;96401.63;4945692;29;20199;-62
2023/06/11 06:51:52;;;;;;;7.32;6.88;;;;;;;24.54;66.87;96401.03;4941357;29;20207;-62
2023/06/11 06:54:20;;;;;;;8.18;7.47;;;;;;;24.45;65.94;96404.28;4936853;29;20286;-63
2023/06/11 06:56:46;;;;;;;7.95;7.35;;;;;;;24.36;66.42;96400.31;4938672;29;20300;-63
2023/06/11 06:59:14;;;;;;;7.82;7.28;;;;;;;24.21;66.54;96398.91;4947574;29;20254;-63
2023/06/11 07:01:40;;;;;;;7.97;7.38;;;;;;;24.31;67.32;96400.19;4936640;29;20246;-63
2023/06/11 07:04:07;;;;;;;7.40;6.93;;;;;;;24.60;68.01;96405.47;4936597;29;20207;-62
2023/06/11 07:06:33;;;;;;;7.72;7.13;;;;;;;24.75;65.52;96402.28;4936642;29;20218;-63
2023/06/11 07:08:59;;;;;;;6.95;6.53;;;;;;;25.04;66.26;96408.63;4950139;28;20194;-63
2023/06/11 07:11:27;;;;;;;7.70;7.20;;;;;;;25.05;64.48;96407.53;4945175;29;20238;-62
2023/06/11 07:13:54;;;;;;;7.65;7.05;;;;;;;25.07;64.51;96403.53;4950061;29;20207;-63
2023/06/11 07:16:20;;;;;;;8.02;7.43;;;;;;;25.16;64.76;96406.69;4939740;29;20215;-64
2023/06/11 07:18:46;;;;;;;7.50;6.90;;;;;;;25.39;64.08;96403.06;4939665;29;20676;-64
2023/06/11 07:21:16;;;;;;;8.27;7.68;;;;;;;25.39;63.41;96398.50;4939661;29;20654;-63
2023/06/11 07:23:43;;;;;;;8.07;7.47;;;;;;;25.71;60.49;96401.53;4947487;29;20203;-63
2023/06/11 07:26:11;;;;;;;7.78;7.07;;;;;;;25.78;62.27;96404.09;4939619;29;20215;-63
2023/06/11 07:28:40;;;;;;;7.95;7.35;;;;;;;25.70;62.40;96400.72;4943313;29;20700;-64
2023/06/11 07:31:07;;;;;;;8.13;7.47;;;;;;;25.68;63.42;96405.53;4940738;29;20229;-63
2023/06/11 07:33:33;;;;;;;7.40;6.80;;;;;;;26.02;63.85;96402.88;4941724;29;20234;-65
2023/06/11 07:36:00;;;;;;;7.10;6.47;;;;;;;26.05;60.49;96411.34;4941496;29;20221;-62
2023/06/11 07:38:26;;;;;;;7.88;7.28;;;;;;;26.29;59.16;96409.31;4940377;29;20245;-64
2023/06/11 07:40:53;;;;;;;7.65;7.03;;;;;;;26.28;59.33;96413.09;4942903;29;20227;-62
2023/06/11 07:43:19;;;;;;;7.70;7.20;;;;;;;26.47;59.58;96405.50;4943970;29;20210;-65
2023/06/11 07:45:47;;;;;;;7.95;7.25;;;;;;;26.47;60.55;96406.34;4942397;29;20222;-62
2023/06/11 07:48:14;;;;;;;7.22;6.72;;;;;;;26.59;59.72;96409.78;4941208;29;20214;-63
2023/06/11 07:50:41;;;;;;;7.00;6.50;;;;;;;26.60;59.49;96411.44;4947046;29;20210;-66
2023/06/11 07:53:08;;;;;;;7.15;6.55;;;;;;;26.30;58.94;96405.53;4953773;29;20213;-65
2023/06/11 07:55:35;;;;;;;7.25;6.75;;;;;;;26.76;58.46;96401.59;4946397;29;20227;-65
2023/06/11 07:58:01;;;;;;;7.20;6.70;;;;;;;26.83;58.71;96415.00;4941157;29;20211;-64
2023/06/11 08:00:28;;;;;;;6.93;6.45;;;;;;;26.67;57.99;96406.66;4939233;29;20235;-64
2023/06/11 08:02:56;;;;;;;7.68;7.07;;;;;;;26.66;59.04;96404.19;4939372;29;20586;-63
2023/06/11 08:05:22;;;;;;;6.70;6.20;;;;;;;26.87;57.75;96400.69;4941674;29;20225;-63
2023/06/11 08:07:49;;;;;;;7.25;6.75;;;;;;;26.72;57.18;96398.56;4953219;29;20199;-64
2023/06/11 08:10:15;;;;;;;6.95;6.45;;;;;;;26.69;57.80;96404.50;4939553;29;20592;-60
2023/06/11 08:12:42;;;;;;;7.35;6.85;;;;;;;26.95;57.57;96399.44;4950210;29;20319;-63
2023/06/11 08:15:10;;;;;;;7.15;6.60;;;;;;;26.95;56.68;96402.16;4939176;28;20211;-62
2023/06/11 08:17:36;;;;;;;6.72;6.32;;;;;;;26.85;57.79;96396.59;4938891;29;20610;-61
2023/06/11 08:20:07;;;;;;;7.75;7.15;;;;;;;26.61;58.09;96395.97;4937845;29;20242;-64
2023/06/11 08:22:33;;;;;;;8.70;8.00;;;;;;;26.85;56.04;96394.72;4946913;29;20206;-62
2023/06/11 08:25:00;;;;;;;8.32;7.72;;;;;;;26.43;57.77;96405.19;4950917;29;20219;-63
2023/06/11 08:27:27;;;;;;;8.00;7.40;;;;;;;26.04;59.54;96395.34;4952027;29;20273;-62
2023/06/11 08:29:54;;;;;;;7.50;7.00;;;;;;;26.35;59.44;96400.22;4946827;29;20203;-61
2023/06/11 08:32:20;;;;;;;7.15;6.65;;;;;;;26.43;61.70;96399.75;4938602;29;20211;-61
2023/06/11 08:34:47;;;;;;;6.63;6.03;;;;;;;27.01;60.03;96401.97;4938882;29;20218;-62
2023/06/11 08:37:15;;;;;;;6.82;6.32;;;;;;;27.30;58.35;96399.88;4938508;29;20219;-62
2023/06/11 08:39:41;;;;;;;7.70;7.07;;;;;;;27.48;57.21;96396.88;4938488;29;20699;-63
2023/06/11 08:42:08;;;;;;;7.05;6.55;;;;;;;27.60;57.40;96394.81;4938421;29;20273;-62
2023/06/11 08:44:35;;;;;;;7.13;6.68;;;;;;;27.11;55.35;96393.94;4938380;29;20208;-63
2023/06/11 08:47:03;;;;;;;7.65;6.95;;;;;;;26.90;56.11;96385.81;4951034;29;20211;-62
2023/06/11 08:49:31;;;;;;;7.80;7.30;;;;;;;27.02;57.11;96395.47;4957257;28;20273;-63
2023/06/11 08:51:59;;;;;;;7.20;6.70;;;;;;;27.49;56.89;96395.75;4956170;29;20202;-62
2023/06/11 08:54:27;;;;;;;7.78;7.13;;;;;;;27.34;55.09;96398.31;4956690;29;20286;-63
2023/06/11 08:56:54;;;;;;;7.03;6.57;;;;;;;27.60;56.35;96389.38;4941635;29;20211;-61
2023/06/11 08:59:21;;;;;;;6.80;6.40;;;;;;;27.48;53.52;96402.28;4947653;29;20565;-62
2023/06/11 09:01:50;;;;;;;7.40;6.90;;;;;;;27.57;55.74;96387.16;4941016;29;20222;-64
2023/06/11 09:04:17;;;;;;;7.82;7.22;;;;;;;27.32;56.91;96389.56;4938141;29;20215;-62
2023/06/11 09:06:50;;;;;;;6.80;6.35;;;;;;;27.30;56.04;96389.03;4941900;29;20206;-62
2023/06/11 09:09:16;;;;;;;6.97;6.47;;;;;;;27.29;57.50;96398.22;4951356;29;20214;-62
2023/06/11 09:11:46;;;;;;;7.57;7.07;;;;;;;27.10;57.75;96391.50;4959802;29;20584;-64
2023/06/11 09:14:12;;;;;;;7.70;7.13;;;;;;;26.92;57.64;96383.69;4964458;29;20206;-62
2023/06/11 09:16:40;;;;;;;8.45;7.75;;;;;;;26.66;57.74;96394.16;4952040;29;20198;-61
2023/06/11 09:19:06;;;;;;;7.95;7.32;;;;;;;26.85;58.10;96386.56;4947616;29;20214;-61
2023/06/11 09:21:32;;;;;;;7.55;6.97;;;;;;;27.00;57.29;96394.06;4947607;28;20207;-61
2023/06/11 09:24:06;;;;;;;7.28;6.65;;;;;;;27.00;57.05;96391.34;4950507;29;20217;-62
2023/06/11 09:26:33;;;;;;;7.45;6.85;;;;;;;26.73;56.65;96392.09;4949636;29;20772;-62
2023/06/11 09:29:02;;;;;;;7.05;6.47;;;;;;;26.79;57.75;96392.13;4945783;29;20214;-61
2023/06/11 09:31:29;;;;;;;6.45;6.05;;;;;;;27.13;60.14;96397.25;4948319;28;20580;-63
2023/06/11 09:34:01;;;;;;;7.20;6.60;;;;;;;27.27;57.96;96394.97;4944375;29;20221;-61
2023/06/11 09:36:28;;;;;;;7.25;6.75;;;;;;;27.14;54.76;96398.03;4948714;29;20284;-62
2023/06/11 09:38:56;;;;;;;9.00;6.53;;;;;;;27.13;57.96;96382.84;4945771;29;20207;-60
2023/06/11 09:41:24;;;;;;;6.70;6.20;;;;;;;27.61;55.57;96387.47;4955516;28;20229;-62
2023/06/11 09:43:54;;;;;;;6.43;5.93;;;;;;;27.75;54.12;96385.16;4943670;29;20219;-61
2023/06/11 09:46:24;;;;;;;6.20;5.80;;;;;;;27.86;54.63;96393.16;4947105;29;20306;-62
2023/06/11 09:48:51;;;;;;;7.03;6.53;;;;;;;27.71;53.69;96387.56;4940135;29;20211;-61
2023/06/11 09:51:23;;;;;;;6.80;6.38;;;;;;;27.75;54.42;96390.59;4937386;29;20211;-64
2023/06/11 09:53:51;;;;;;;6.57;6.03;;;;;;;27.96;54.93;96381.53;4950210;29;20243;-64
2023/06/11 09:56:19;;;;;;;6.47;6.07;;;;;;;27.89;54.34;96391.81;4948648;29;20202;-61
2023/06/11 09:58:48;;;;;;;6.35;5.85;;;;;;;27.85;52.82;96385.25;4938692;29;20207;-62
2023/06/11 10:01:15;;;;;;;6.35;5.95;;;;;;;28.07;54.56;96388.75;4936696;29;20238;-61
2023/06/11 10:03:42;;;;;;;5.88;5.47;;;;;;;28.30;53.59;96371.25;4936793;29;20211;-60
2023/06/11 10:06:14;;;;;;;6.50;6.10;;;;;;;28.15;52.31;96375.50;4937141;29;20215;-64
2023/06/11 10:08:40;;;;;;;6.43;6.03;;;;;;;28.22;52.75;96386.16;4937263;29;20211;-66
2023/06/11 10:11:08;;;;;;;6.15;5.75;;;;;;;28.44;53.90;96377.88;4936763;29;20238;-61
2023/06/11 10:13:35;;;;;;;6.20;5.70;;;;;;;28.48;52.31;96381.72;4949682;29;20207;-61
2023/06/11 10:16:02;;;;;;;6.05;5.65;;;;;;;28.61;53.02;96371.19;4936789;29;20644;-60
2023/06/11 10:18:30;;;;;;;6.07;5.70;;;;;;;28.82;52.53;96374.06;4937086;29;20222;-62
2023/06/11 10:20:59;;;;;;;5.53;5.20;;;;;;;28.92;52.21;96374.09;4938199;29;20314;-61
2023/06/11 10:23:35;;;;;;;6.22;5.72;;;;;;;28.80;52.00;96378.97;4945053;29;20576;-61
2023/06/11 10:26:02;;;;;;;5.80;5.40;;;;;;;29.04;51.76;96370.09;4949827;29;20198;-63
2023/06/11 10:28:36;;;;;;;6.35;5.88;;;;;;;28.94;50.11;96371.94;4948436;29;20211;-61
2023/06/11 10:31:03;;;;;;;5.97;5.43;;;;;;;28.98;50.47;96365.69;4950143;29;20257;-62
2023/06/11 10:33:37;;;;;;;6.00;5.60;;;;;;;29.09;49.54;96372.81;4952887;29;20210;-64
2023/06/11 10:36:06;;;;;;;5.90;5.50;;;;;;;29.05;49.77;96373.63;4944092;28;20214;-62
2023/06/11 10:38:37;;;;;;;6.15;5.75;;;;;;;29.38;50.60;96372.41;4943481;29;20207;-62
2023/06/11 10:41:04;;;;;;;6.35;5.75;;;;;;;29.10;50.55;96368.19;4940747;29;20247;-62
2023/06/11 10:43:31;;;;;;;6.20;5.60;;;;;;;29.34;50.40;96374.00;4954180;29;20218;-60
2023/06/11 10:46:01;;;;;;;6.32;5.75;;;;;;;29.46;50.10;96359.06;4944879;29;20207;-63
2023/06/11 10:48:28;;;;;;;6.18;5.78;;;;;;;29.10;49.92;96368.19;4944782;29;20238;-62
2023/06/11 10:51:00;;;;;;;5.68;5.20;;;;;;;29.19;49.49;96368.50;4940694;29;20238;-62
2023/06/11 10:53:36;;;;;;;5.65;5.25;;;;;;;28.95;49.40;96368.94;4940587;29;20298;-62
2023/06/11 10:56:05;;;;;;;5.35;5.03;;;;;;;29.37;49.89;96362.59;4945002;29;20206;-64
2023/06/11 10:58:33;;;;;;;5.10;4.80;;;;;;;29.57;49.22;96363.47;4941907;29;20352;-62
2023/06/11 11:01:00;;;;;;;5.03;4.72;;;;;;;29.59;48.32;96355.00;4939699;29;20293;-65
2023/06/11 11:03:30;;;;;;;5.78;5.47;;;;;;;29.79;49.06;96357.78;4943343;29;20242;-62
2023/06/11 11:05:57;;;;;;;5.72;5.43;;;;;;;29.74;48.06;96355.03;4940122;29;20207;-62
2023/06/11 11:08:23;;;;;;;5.40;5.10;;;;;;;29.50;48.57;96351.19;4945952;29;20294;-63
2023/06/11 11:10:55;;;;;;;5.85;5.30;;;;;;;28.73;49.32;96362.03;4939821;29;20215;-62
2023/06/11 11:13:21;;;;;;;5.70;5.40;;;;;;;28.82;50.20;96360.44;4954093;29;20211;-62
2023/06/11 11:15:48;;;;;;;6.15;5.75;;;;;;;28.97;49.17;96357.78;4954109;29;20215;-62
2023/06/11 11:18:14;;;;;;;5.55;5.15;;;;;;;29.04;49.50;96358.38;4955889;29;20206;-60
2023/06/11 11:20:44;;;;;;;5.32;4.93;;;;;;;29.13;48.81;96359.47;4961757;29;20238;-63
2023/06/11 11:23:10;;;;;;;5.43;4.97;;;;;;;28.89;48.73;96347.41;4939949;29;20289;-64
2023/06/11 11:25:38;;;;;;;5.35;5.05;;;;;;;28.81;49.65;96356.06;4940166;29;20215;-65
2023/06/11 11:28:06;;;;;;;5.05;4.75;;;;;;;28.92;48.97;96353.13;4949748;29;20211;-62
2023/06/11 11:30:32;;;;;;;5.20;4.90;;;;;;;28.77;48.02;96355.00;4939955;29;20647;-63
2023/06/11 11:33:00;;;;;;;5.28;4.90;;;;;;;28.99;50.39;96350.16;4940692;29;20222;-63